Time;durP1;ratioP1;P1;durP2;ratioP2;P2;SDS_P1;SDS_P2;PMS_P1;PMS_P2;Temp;Humidity;BMP_temperature;BMP_pressure;BME280_temperature;BME280_humidity;BME280_pressure;Samples;Min_cycle;Max_cycle;Signal;HPM_P1;HPM_P2
2022/01/14 00:01:56;;;;;;;;;64.00;48.67;;;;;;;;5064537;28;8959;-79
2022/01/14 00:04:24;;;;;;;;;69.00;54.67;;;;;;;;5068832;28;8849;-78
2022/01/14 00:06:51;;;;;;;;;74.33;57.33;;;;;;;;5065665;28;8977;-79
2022/01/14 00:09:18;;;;;;;;;63.33;53.33;;;;;;;;5066705;28;8856;-79
2022/01/14 00:11:50;;;;;;;;;50.67;46.33;;;;;;;;5064673;28;9798;-80
2022/01/14 00:14:35;;;;;;;;;61.67;51.33;;;;;;;;5059718;28;8849;-80
2022/01/14 00:17:04;;;;;;;;;73.33;54.00;;;;;;;;5056475;28;9787;-79
2022/01/14 00:19:32;;;;;;;;;60.00;50.00;;;;;;;;5065261;28;8884;-79
2022/01/14 00:22:05;;;;;;;;;53.67;44.33;;;;;;;;5063902;28;8848;-79
2022/01/14 00:31:39;;;;;;;;;59.67;42.33;;;;;;;;5065353;28;8903;-81
2022/01/14 00:32:58;;;;;;;;;53.67;42.33;;;;;;;;5064483;28;8836;-79
2022/01/14 00:35:25;;;;;;;;;48.00;42.33;;;;;;;;5066092;28;8856;-79
2022/01/14 00:37:53;;;;;;;;;47.33;43.33;;;;;;;;5064847;28;8852;-79
2022/01/14 00:40:21;;;;;;;;;51.33;44.67;;;;;;;;5047225;28;8888;-80
2022/01/14 00:42:48;;;;;;;;;41.00;38.33;;;;;;;;5065174;28;8872;-79
2022/01/14 00:45:16;;;;;;;;;56.67;46.00;;;;;;;;5065696;28;8872;-80
2022/01/14 00:47:43;;;;;;;;;39.67;37.00;;;;;;;;5047369;28;8821;-79
2022/01/14 00:50:13;;;;;;;;;36.67;36.67;;;;;;;;5063854;28;8880;-79
2022/01/14 00:52:42;;;;;;;;;42.67;36.67;;;;;;;;5066071;28;8871;-76
2022/01/14 00:55:13;;;;;;;;;60.33;45.67;;;;;;;;5065299;28;8864;-80
2022/01/14 01:00:27;;;;;;;;;58.00;45.00;;;;;;;;5063541;28;8804;-80
2022/01/14 01:02:54;;;;;;;;;34.67;34.67;;;;;;;;5063760;28;8880;-80
2022/01/14 01:05:23;;;;;;;;;47.67;42.00;;;;;;;;5066002;28;8900;-79
2022/01/14 01:08:01;;;;;;;;;46.33;38.00;;;;;;;;5064262;28;8909;-77
2022/01/14 01:10:28;;;;;;;;;44.00;41.33;;;;;;;;5063811;28;8891;-80
2022/01/14 01:13:01;;;;;;;;;39.00;36.33;;;;;;;;5063960;28;9783;-80
2022/01/14 01:15:28;;;;;;;;;52.67;41.00;;;;;;;;5065851;28;8872;-81
2022/01/14 01:17:56;;;;;;;;;48.00;34.33;;;;;;;;5064365;28;8868;-80
2022/01/14 01:20:24;;;;;;;;;50.00;39.33;;;;;;;;5063552;28;8910;-79
2022/01/14 01:22:54;;;;;;;;;50.67;41.00;;;;;;;;5064611;28;8865;-79
2022/01/14 01:25:25;;;;;;;;;52.33;40.67;;;;;;;;5062772;28;8887;-79
2022/01/14 01:27:54;;;;;;;;;36.33;32.00;;;;;;;;5065225;28;8863;-80
2022/01/14 01:30:49;;;;;;;;;55.00;45.33;;;;;;;;5063774;28;8860;-80
2022/01/14 01:33:16;;;;;;;;;44.33;41.67;;;;;;;;5062328;28;8868;-80
2022/01/14 01:35:44;;;;;;;;;40.67;38.33;;;;;;;;5064217;28;8872;-80
2022/01/14 01:38:16;;;;;;;;;31.33;25.67;;;;;;;;5056476;28;8914;-76
2022/01/14 01:40:45;;;;;;;;;58.00;48.67;;;;;;;;5064426;28;9590;-80
2022/01/14 01:43:13;;;;;;;;;59.00;49.33;;;;;;;;5064286;28;8986;-81
2022/01/14 01:45:41;;;;;;;;;53.33;47.33;;;;;;;;5057656;28;8971;-79
2022/01/14 01:48:08;;;;;;;;;53.67;47.33;;;;;;;;5046121;28;8949;-79
2022/01/14 01:50:38;;;;;;;;;38.67;38.67;;;;;;;;5063563;28;8979;-81
2022/01/14 01:53:06;;;;;;;;;51.67;43.33;;;;;;;;5045664;28;8867;-81
2022/01/14 01:55:34;;;;;;;;;46.67;41.33;;;;;;;;5062803;28;8864;-81
2022/01/14 01:58:01;;;;;;;;;64.67;46.33;;;;;;;;5075984;28;8968;-79
2022/01/14 02:00:29;;;;;;;;;63.67;49.67;;;;;;;;5062796;28;8824;-78
2022/01/14 02:02:58;;;;;;;;;53.67;43.33;;;;;;;;5064027;28;8895;-80
2022/01/14 02:05:25;;;;;;;;;50.33;46.00;;;;;;;;5064584;28;8852;-79
2022/01/14 02:07:53;;;;;;;;;57.00;47.00;;;;;;;;5063630;28;8852;-80
2022/01/14 02:10:23;;;;;;;;;60.33;49.00;;;;;;;;5062271;28;8852;-79
2022/01/14 02:12:52;;;;;;;;;64.33;50.33;;;;;;;;5061704;28;8922;-80
2022/01/14 02:23:40;;;;;;;;;51.67;44.67;;;;;;;;5064951;28;8947;-81
2022/01/14 02:26:08;;;;;;;;;59.00;52.33;;;;;;;;5064554;28;8866;-80
2022/01/14 02:28:35;;;;;;;;;66.67;53.33;;;;;;;;5064002;28;8948;-79
2022/01/14 02:31:02;;;;;;;;;65.33;50.33;;;;;;;;5044693;28;8785;-82
2022/01/14 02:33:30;;;;;;;;;69.33;55.33;;;;;;;;5045582;28;8910;-81
2022/01/14 02:36:02;;;;;;;;;67.00;51.33;;;;;;;;5064969;28;8922;-80
2022/01/14 02:38:30;;;;;;;;;58.00;50.00;;;;;;;;5060239;28;8844;-79
2022/01/14 02:40:58;;;;;;;;;65.00;54.67;;;;;;;;5063547;28;8844;-81
2022/01/14 02:43:26;;;;;;;;;34.00;34.00;;;;;;;;5062670;28;8880;-80
2022/01/14 02:45:56;;;;;;;;;50.33;42.67;;;;;;;;5063229;28;9218;-81
2022/01/14 02:48:25;;;;;;;;;67.67;54.00;;;;;;;;5062156;28;9559;-80
2022/01/14 02:50:59;;;;;;;;;68.00;51.00;;;;;;;;5063450;28;8931;-80
2022/01/14 02:53:41;;;;;;;;;65.33;53.67;;;;;;;;5061953;28;8856;-79
2022/01/14 02:56:10;;;;;;;;;71.67;55.67;;;;;;;;5061436;28;8959;-80
2022/01/14 02:58:39;;;;;;;;;56.33;44.67;;;;;;;;5062991;28;8971;-80
2022/01/14 03:01:09;;;;;;;;;56.33;48.67;;;;;;;;5043477;28;8813;-80
2022/01/14 03:03:37;;;;;;;;;75.00;56.00;;;;;;;;5062539;28;8872;-80
2022/01/14 03:06:05;;;;;;;;;63.00;50.00;;;;;;;;5062181;28;8864;-79
2022/01/14 03:08:35;;;;;;;;;57.00;47.33;;;;;;;;5045093;28;8869;-79
2022/01/14 03:11:07;;;;;;;;;59.67;46.00;;;;;;;;5063785;28;8883;-80
2022/01/14 03:13:35;;;;;;;;;71.33;50.67;;;;;;;;5063121;28;8864;-78
2022/01/14 03:16:04;;;;;;;;;65.33;50.33;;;;;;;;5063323;28;8841;-79
2022/01/14 03:18:39;;;;;;;;;69.33;51.33;;;;;;;;5061884;28;8873;-79
2022/01/14 03:21:11;;;;;;;;;54.67;47.00;;;;;;;;5063211;28;8952;-78
2022/01/14 03:23:46;;;;;;;;;59.67;47.67;;;;;;;;5062670;28;8877;-79
2022/01/14 03:26:14;;;;;;;;;71.00;50.33;;;;;;;;5069741;28;8943;-78
2022/01/14 03:28:42;;;;;;;;;53.67;44.00;;;;;;;;5066528;28;8887;-80
2022/01/14 03:31:09;;;;;;;;;50.67;42.33;;;;;;;;5065373;28;8812;-77
2022/01/14 03:33:37;;;;;;;;;57.33;49.00;;;;;;;;5059113;28;8974;-78
2022/01/14 03:36:06;;;;;;;;;36.00;36.00;;;;;;;;5065353;28;8909;-81
2022/01/14 03:38:33;;;;;;;;;39.33;36.33;;;;;;;;5067255;28;8868;-80
2022/01/14 03:41:03;;;;;;;;;46.33;38.67;;;;;;;;5053762;28;8880;-79
2022/01/14 03:43:30;;;;;;;;;48.33;40.33;;;;;;;;5060805;28;8883;-81
2022/01/14 03:45:58;;;;;;;;;29.67;23.33;;;;;;;;5069502;28;8859;-80
2022/01/14 03:48:26;;;;;;;;;46.00;41.00;;;;;;;;5065585;28;9640;-82
2022/01/14 03:50:53;;;;;;;;;39.67;36.33;;;;;;;;5066486;28;8844;-80
2022/01/14 03:53:20;;;;;;;;;46.33;45.00;;;;;;;;5065935;28;8879;-81
2022/01/14 03:55:47;;;;;;;;;49.67;46.00;;;;;;;;5068895;28;8888;-80
2022/01/14 03:58:16;;;;;;;;;57.00;50.00;;;;;;;;5072144;28;8874;-81
2022/01/14 04:00:44;;;;;;;;;62.67;49.67;;;;;;;;5048251;28;8809;-80
2022/01/14 04:03:11;;;;;;;;;60.00;51.67;;;;;;;;5066700;28;8868;-81
2022/01/14 04:05:38;;;;;;;;;55.00;49.00;;;;;;;;5065569;28;8945;-80
2022/01/14 04:08:06;;;;;;;;;57.33;48.33;;;;;;;;5066477;28;9630;-82
2022/01/14 04:10:34;;;;;;;;;62.33;50.00;;;;;;;;5066406;28;8885;-81
2022/01/14 04:13:05;;;;;;;;;65.33;56.33;;;;;;;;5066307;28;8868;-80
2022/01/14 04:15:42;;;;;;;;;57.33;50.00;;;;;;;;5064093;28;8963;-80
2022/01/14 04:18:12;;;;;;;;;57.00;51.33;;;;;;;;5065742;28;9700;-79
2022/01/14 04:20:40;;;;;;;;;64.00;53.33;;;;;;;;5067035;28;8862;-80
2022/01/14 04:23:08;;;;;;;;;55.33;48.00;;;;;;;;5061325;28;8952;-80
2022/01/14 04:25:36;;;;;;;;;54.33;50.00;;;;;;;;5048875;28;8907;-78
2022/01/14 04:28:06;;;;;;;;;68.33;56.33;;;;;;;;5067237;28;9023;-80
2022/01/14 04:30:35;;;;;;;;;64.33;51.00;;;;;;;;5065827;28;8773;-79
2022/01/14 04:33:02;;;;;;;;;46.33;43.33;;;;;;;;5065087;28;9733;-81
2022/01/14 04:35:30;;;;;;;;;66.67;55.67;;;;;;;;5065629;28;9016;-81
2022/01/14 04:37:58;;;;;;;;;66.33;50.33;;;;;;;;5061740;28;9798;-80
2022/01/14 04:40:26;;;;;;;;;52.00;47.67;;;;;;;;5064337;28;8848;-81
2022/01/14 04:42:54;;;;;;;;;57.33;49.67;;;;;;;;5066249;28;8848;-79
2022/01/14 04:45:40;;;;;;;;;57.67;49.00;;;;;;;;5063503;28;8868;-79
2022/01/14 04:48:11;;;;;;;;;53.67;45.67;;;;;;;;5065643;28;9673;-80
2022/01/14 04:50:39;;;;;;;;;53.00;46.67;;;;;;;;5065566;28;8867;-79
2022/01/14 04:53:10;;;;;;;;;34.00;34.00;;;;;;;;5065163;28;8857;-79
2022/01/14 04:55:37;;;;;;;;;55.67;47.33;;;;;;;;5067273;28;8872;-81
2022/01/14 04:58:05;;;;;;;;;56.67;45.33;;;;;;;;5064781;28;8872;-78
2022/01/14 05:00:33;;;;;;;;;42.67;39.00;;;;;;;;5071386;28;8789;-82
2022/01/14 05:03:00;;;;;;;;;22.00;8.67;;;;;;;;5064258;28;8981;-78
2022/01/14 05:05:33;;;;;;;;;47.00;45.33;;;;;;;;5064604;28;8963;-79
2022/01/14 05:08:00;;;;;;;;;49.33;46.00;;;;;;;;5063166;28;8856;-78
2022/01/14 05:10:37;;;;;;;;;59.00;48.00;;;;;;;;5063921;28;8876;-79
2022/01/14 05:13:05;;;;;;;;;57.67;47.00;;;;;;;;5045772;28;8856;-77
2022/01/14 05:15:32;;;;;;;;;54.00;47.67;;;;;;;;5064456;28;8874;-77
2022/01/14 05:17:59;;;;;;;;;48.00;44.67;;;;;;;;5066078;28;9907;-79
2022/01/14 05:20:28;;;;;;;;;54.67;44.33;;;;;;;;5045748;28;8914;-79
2022/01/14 05:22:55;;;;;;;;;51.00;46.33;;;;;;;;5063773;28;8998;-80
2022/01/14 05:25:22;;;;;;;;;53.33;44.00;;;;;;;;5064508;28;8848;-80
2022/01/14 05:27:50;;;;;;;;;48.00;44.33;;;;;;;;5067306;28;9317;-80
2022/01/14 05:30:17;;;;;;;;;53.67;47.00;;;;;;;;5064013;28;8890;-81
2022/01/14 05:32:47;;;;;;;;;65.33;54.67;;;;;;;;5064695;28;9664;-78
2022/01/14 05:35:15;;;;;;;;;52.00;45.33;;;;;;;;5065486;28;8907;-81
2022/01/14 05:37:44;;;;;;;;;58.67;47.67;;;;;;;;5063774;28;8882;-81
2022/01/14 05:40:13;;;;;;;;;58.67;46.00;;;;;;;;5065904;28;8880;-81
2022/01/14 05:42:40;;;;;;;;;54.33;49.33;;;;;;;;5064916;28;8865;-80
2022/01/14 05:45:09;;;;;;;;;52.67;46.00;;;;;;;;5065606;28;8851;-80
2022/01/14 05:47:37;;;;;;;;;47.33;43.33;;;;;;;;5063513;28;8906;-81
2022/01/14 05:50:06;;;;;;;;;48.33;42.00;;;;;;;;5063319;28;8848;-80
2022/01/14 05:52:33;;;;;;;;;43.00;41.33;;;;;;;;5065574;28;9606;-75
2022/01/14 05:55:02;;;;;;;;;53.00;45.67;;;;;;;;5063168;28;8888;-75
2022/01/14 05:57:30;;;;;;;;;43.67;40.33;;;;;;;;5064406;28;8957;-80
2022/01/14 05:59:58;;;;;;;;;47.00;43.33;;;;;;;;5043840;28;8888;-78
2022/01/14 06:02:27;;;;;;;;;48.67;46.00;;;;;;;;5064566;28;8866;-79
2022/01/14 06:04:54;;;;;;;;;33.33;29.33;;;;;;;;5063993;28;8906;-80
2022/01/14 06:07:21;;;;;;;;;46.33;44.33;;;;;;;;5063926;28;8853;-80
2022/01/14 06:09:48;;;;;;;;;54.00;48.00;;;;;;;;5065079;28;8832;-80
2022/01/14 06:12:17;;;;;;;;;50.00;46.00;;;;;;;;5063509;28;9023;-81
2022/01/14 06:14:44;;;;;;;;;50.67;45.33;;;;;;;;5064449;28;8872;-76
2022/01/14 06:17:12;;;;;;;;;44.00;37.67;;;;;;;;5063055;28;8994;-78
2022/01/14 06:19:39;;;;;;;;;50.33;42.33;;;;;;;;5070263;28;9049;-80
2022/01/14 06:22:06;;;;;;;;;48.33;43.67;;;;;;;;5062970;28;8871;-83
2022/01/14 06:24:34;;;;;;;;;46.33;43.67;;;;;;;;5063756;28;8991;-87
2022/01/14 06:27:02;;;;;;;;;52.67;46.00;;;;;;;;5065819;28;8878;-80
2022/01/14 06:29:30;;;;;;;;;54.67;46.00;;;;;;;;5028240;28;8860;-86
2022/01/14 06:31:58;;;;;;;;;45.00;44.00;;;;;;;;5058244;28;8836;-84
2022/01/14 06:34:25;;;;;;;;;45.67;43.67;;;;;;;;5060775;28;8965;-86
2022/01/14 06:36:52;;;;;;;;;45.00;42.67;;;;;;;;5064295;28;8886;-88
2022/01/14 06:39:19;;;;;;;;;47.67;40.33;;;;;;;;5063576;28;8872;-85
2022/01/14 06:41:47;;;;;;;;;53.33;45.67;;;;;;;;5062715;28;8864;-89
2022/01/14 06:44:14;;;;;;;;;44.33;42.00;;;;;;;;5063855;28;8996;-93
2022/01/14 06:46:42;;;;;;;;;48.33;41.33;;;;;;;;5062011;28;8881;-82
2022/01/14 06:49:10;;;;;;;;;54.33;43.00;;;;;;;;5023800;28;8899;-77
2022/01/14 06:51:37;;;;;;;;;53.33;46.00;;;;;;;;5017511;28;8907;-74
2022/01/14 06:54:04;;;;;;;;;51.00;48.00;;;;;;;;5021527;28;8871;-79
2022/01/14 06:56:31;;;;;;;;;56.67;47.33;;;;;;;;5017082;28;8998;-78
2022/01/14 06:58:59;;;;;;;;;53.33;45.33;;;;;;;;5023688;28;8903;-78
2022/01/14 07:01:26;;;;;;;;;53.33;46.33;;;;;;;;5019210;28;8827;-78
2022/01/14 07:03:55;;;;;;;;;43.33;40.67;;;;;;;;5020845;28;8876;-75
2022/01/14 07:06:22;;;;;;;;;48.00;42.00;;;;;;;;5022988;28;8844;-79
2022/01/14 07:08:50;;;;;;;;;43.33;37.67;;;;;;;;5020649;28;8863;-78
2022/01/14 07:11:18;;;;;;;;;51.00;46.00;;;;;;;;5024073;28;8876;-76
2022/01/14 07:13:45;;;;;;;;;49.67;46.00;;;;;;;;5021101;28;8880;-79
2022/01/14 07:16:12;;;;;;;;;52.00;46.67;;;;;;;;5021101;28;8876;-78
2022/01/14 07:18:40;;;;;;;;;43.33;43.33;;;;;;;;5018429;28;9013;-77
2022/01/14 07:21:08;;;;;;;;;36.33;36.00;;;;;;;;5018764;28;8868;-72
2022/01/14 07:23:36;;;;;;;;;59.00;51.00;;;;;;;;5021418;28;9661;-75
2022/01/14 07:26:03;;;;;;;;;50.00;46.67;;;;;;;;5020873;28;8868;-77
2022/01/14 07:28:30;;;;;;;;;53.67;48.00;;;;;;;;5022151;28;8862;-75
2022/01/14 07:30:58;;;;;;;;;51.67;46.33;;;;;;;;5021234;28;8835;-75
2022/01/14 07:33:25;;;;;;;;;55.00;50.00;;;;;;;;5021723;28;8846;-75
2022/01/14 07:35:52;;;;;;;;;50.33;46.33;;;;;;;;5022120;28;8994;-74
2022/01/14 07:38:22;;;;;;;;;46.00;43.67;;;;;;;;5020058;28;8941;-74
2022/01/14 07:40:49;;;;;;;;;37.00;36.33;;;;;;;;5021379;28;8881;-74
2022/01/14 07:43:19;;;;;;;;;63.67;55.00;;;;;;;;5021460;28;8891;-73
2022/01/14 07:45:47;;;;;;;;;51.00;46.67;;;;;;;;5020481;28;8857;-74
2022/01/14 07:48:14;;;;;;;;;56.00;50.33;;;;;;;;5047147;28;8894;-73
2022/01/14 07:50:41;;;;;;;;;55.00;47.33;;;;;;;;5063412;28;8910;-74
2022/01/14 07:53:08;;;;;;;;;65.00;56.00;;;;;;;;5062365;28;8876;-73
2022/01/14 07:55:37;;;;;;;;;68.00;55.67;;;;;;;;5062251;28;8887;-74
2022/01/14 07:58:05;;;;;;;;;66.00;54.67;;;;;;;;5062836;28;8848;-73
2022/01/14 08:00:34;;;;;;;;;57.67;51.67;;;;;;;;5055373;28;8830;-73
2022/01/14 08:03:01;;;;;;;;;59.33;52.00;;;;;;;;5063163;28;9696;-74
2022/01/14 08:05:29;;;;;;;;;70.67;55.67;;;;;;;;5062725;28;8886;-75
2022/01/14 08:07:58;;;;;;;;;59.33;52.00;;;;;;;;5063191;28;8980;-76
2022/01/14 08:10:26;;;;;;;;;41.67;41.00;;;;;;;;5058986;28;9661;-75
2022/01/14 08:12:55;;;;;;;;;56.00;50.00;;;;;;;;5065939;28;8957;-77
2022/01/14 08:15:23;;;;;;;;;55.33;50.67;;;;;;;;5065163;28;8874;-77
2022/01/14 08:17:50;;;;;;;;;46.00;44.33;;;;;;;;5065240;28;8864;-77
2022/01/14 08:20:17;;;;;;;;;59.00;48.67;;;;;;;;5065131;28;8991;-75
2022/01/14 08:22:45;;;;;;;;;55.67;47.33;;;;;;;;5064159;28;8884;-78
2022/01/14 08:25:12;;;;;;;;;49.00;46.67;;;;;;;;5064682;28;8864;-75
2022/01/14 08:27:40;;;;;;;;;53.33;43.33;;;;;;;;5044915;28;8856;-74
2022/01/14 08:30:10;;;;;;;;;55.33;46.33;;;;;;;;5064243;28;8890;-75
2022/01/14 08:32:38;;;;;;;;;54.00;47.33;;;;;;;;5064431;28;8848;-75
2022/01/14 08:35:06;;;;;;;;;58.33;49.00;;;;;;;;5065699;28;8858;-76
2022/01/14 08:37:33;;;;;;;;;57.00;50.67;;;;;;;;5064935;28;8848;-76
2022/01/14 08:40:00;;;;;;;;;58.33;50.33;;;;;;;;5061708;28;8856;-75
2022/01/14 08:42:27;;;;;;;;;60.67;50.67;;;;;;;;5065582;28;8903;-75
2022/01/14 08:44:55;;;;;;;;;78.00;60.00;;;;;;;;5062638;28;9012;-75
2022/01/14 08:47:23;;;;;;;;;71.33;57.00;;;;;;;;5064980;28;8840;-75
2022/01/14 08:49:51;;;;;;;;;55.33;40.33;;;;;;;;5064745;28;8840;-76
2022/01/14 08:52:18;;;;;;;;;54.33;47.67;;;;;;;;5064761;28;8902;-76
2022/01/14 08:54:45;;;;;;;;;64.33;52.67;;;;;;;;5063478;28;8977;-76
2022/01/14 08:57:13;;;;;;;;;70.33;57.00;;;;;;;;5062967;28;8860;-73
2022/01/14 08:59:41;;;;;;;;;68.00;52.00;;;;;;;;5031723;28;8860;-79
2022/01/14 09:02:08;;;;;;;;;67.33;55.33;;;;;;;;5062678;28;8788;-72
2022/01/14 09:04:37;;;;;;;;;64.00;53.00;;;;;;;;5044887;28;8851;-76
2022/01/14 09:07:05;;;;;;;;;73.67;60.67;;;;;;;;5062545;28;9656;-77
2022/01/14 09:09:32;;;;;;;;;71.00;54.67;;;;;;;;5046659;28;8872;-76
2022/01/14 09:12:00;;;;;;;;;71.33;58.33;;;;;;;;5045789;28;9602;-75
2022/01/14 09:14:28;;;;;;;;;58.00;49.33;;;;;;;;5064619;28;9775;-78
2022/01/14 09:16:56;;;;;;;;;70.67;58.00;;;;;;;;5063202;28;8864;-76
2022/01/14 09:19:23;;;;;;;;;67.67;53.00;;;;;;;;5064194;28;8872;-77
2022/01/14 09:21:52;;;;;;;;;66.00;55.00;;;;;;;;5065732;28;8880;-78
2022/01/14 09:24:19;;;;;;;;;68.00;55.67;;;;;;;;5064889;28;8954;-77
2022/01/14 09:26:47;;;;;;;;;63.33;50.00;;;;;;;;5055854;28;8884;-75
2022/01/14 09:29:14;;;;;;;;;67.67;57.00;;;;;;;;5065792;28;9539;-78
2022/01/14 09:31:42;;;;;;;;;70.00;57.00;;;;;;;;5046179;28;8832;-78
2022/01/14 09:34:09;;;;;;;;;68.00;57.33;;;;;;;;5058577;28;9072;-78
2022/01/14 09:36:36;;;;;;;;;72.67;60.67;;;;;;;;5062701;28;8982;-78
2022/01/14 09:39:05;;;;;;;;;76.33;61.67;;;;;;;;5064185;28;8967;-79
2022/01/14 09:41:33;;;;;;;;;75.00;61.33;;;;;;;;5051726;28;8872;-78
2022/01/14 09:44:00;;;;;;;;;85.00;67.33;;;;;;;;5065420;28;8884;-78
2022/01/14 09:46:27;;;;;;;;;84.33;66.67;;;;;;;;5064569;28;8898;-78
2022/01/14 09:48:55;;;;;;;;;83.67;63.00;;;;;;;;5064043;28;8872;-77
2022/01/14 09:51:23;;;;;;;;;75.67;61.00;;;;;;;;5065358;28;9015;-79
2022/01/14 09:53:50;;;;;;;;;77.33;62.67;;;;;;;;5064029;28;8868;-78
2022/01/14 09:56:21;;;;;;;;;79.67;61.67;;;;;;;;5065389;28;8898;-79
2022/01/14 09:58:49;;;;;;;;;68.33;57.00;;;;;;;;5067765;28;8870;-78
2022/01/14 10:01:18;;;;;;;;;78.33;62.33;;;;;;;;5065873;28;8804;-79
2022/01/14 10:03:54;;;;;;;;;75.33;63.33;;;;;;;;5064827;28;8859;-79
2022/01/14 10:06:42;;;;;;;;;64.67;52.33;;;;;;;;5064088;28;8868;-79
2022/01/14 10:09:11;;;;;;;;;60.00;49.33;;;;;;;;5064251;28;11645;-79
2022/01/14 10:11:42;;;;;;;;;66.25;48.50;;;;;;;;5063624;28;11689;-79
2022/01/14 10:14:15;;;;;;;;;64.75;51.00;;;;;;;;5064965;28;11626;-79
2022/01/14 10:16:43;;;;;;;;;70.00;56.00;;;;;;;;5069122;28;11553;-79
2022/01/14 10:19:22;;;;;;;;;58.75;50.75;;;;;;;;5067393;28;12018;-76
2022/01/14 10:21:51;;;;;;;;;63.50;52.00;;;;;;;;5064652;28;11718;-75
2022/01/14 10:24:20;;;;;;;;;66.00;53.75;;;;;;;;5063978;28;11556;-76
2022/01/14 10:26:51;;;;;;;;;65.50;53.25;;;;;;;;5064506;28;11712;-76
2022/01/14 10:29:28;;;;;;;;;62.00;50.25;;;;;;;;5063596;28;12412;-76
2022/01/14 10:31:56;;;;;;;;;67.00;53.25;;;;;;;;5062814;28;11609;-78
2022/01/14 10:34:24;;;;;;;;;68.25;56.00;;;;;;;;5067064;28;11553;-78
2022/01/14 10:37:10;;;;;;;;;75.75;58.50;;;;;;;;5061415;28;11731;-78
2022/01/14 10:39:44;;;;;;;;;75.50;59.50;;;;;;;;5061933;28;11590;-79
2022/01/14 10:42:25;;;;;;;;;65.75;55.00;;;;;;;;5063312;28;11591;-77
2022/01/14 10:44:53;;;;;;;;;62.25;50.25;;;;;;;;5062239;28;11623;-79
2022/01/14 10:47:21;;;;;;;;;55.75;46.50;;;;;;;;5043747;28;11662;-78
2022/01/14 10:49:51;;;;;;;;;59.25;50.25;;;;;;;;5060961;28;11586;-78
2022/01/14 10:52:20;;;;;;;;;51.50;46.25;;;;;;;;5073993;28;11596;-78
2022/01/14 10:54:50;;;;;;;;;60.25;51.50;;;;;;;;5062729;28;11568;-79
2022/01/14 10:57:19;;;;;;;;;63.75;52.25;;;;;;;;5062333;28;11579;-79
2022/01/14 10:59:50;;;;;;;;;59.25;50.75;;;;;;;;5060897;28;11625;-78
2022/01/14 11:02:38;;;;;;;;;58.50;46.00;;;;;;;;5062872;28;11514;-79
2022/01/14 11:05:13;;;;;;;;;62.25;51.75;;;;;;;;5063881;28;11577;-78
2022/01/14 11:07:42;;;;;;;;;55.00;45.75;;;;;;;;5067076;28;12376;-77
2022/01/14 11:10:19;;;;;;;;;59.00;45.50;;;;;;;;5063930;28;11593;-78
2022/01/14 11:12:47;;;;;;;;;54.50;43.75;;;;;;;;5063484;28;11735;-82
2022/01/14 11:15:16;;;;;;;;;43.75;39.50;;;;;;;;5063700;28;11530;-80
2022/01/14 11:17:49;;;;;;;;;51.50;41.75;;;;;;;;5045562;28;11500;-77
2022/01/14 11:20:22;;;;;;;;;41.50;37.00;;;;;;;;5063088;28;11533;-80
2022/01/14 11:25:39;;;;;;;;;47.50;41.00;;;;;;;;5075034;28;11519;-79
2022/01/14 11:28:07;;;;;;;;;53.00;43.00;;;;;;;;5064168;28;11551;-79
2022/01/14 11:30:38;;;;;;;;;48.25;42.25;;;;;;;;5061778;28;11437;-79
2022/01/14 11:33:06;;;;;;;;;52.00;42.00;;;;;;;;5063074;28;11514;-76
2022/01/14 11:35:35;;;;;;;;;50.50;42.75;;;;;;;;5034539;28;11601;-78
2022/01/14 11:38:03;;;;;;;;;42.25;39.00;;;;;;;;5061861;28;12326;-76
2022/01/14 11:40:48;;;;;;;;;50.75;44.25;;;;;;;;5061697;28;11561;-77
2022/01/14 11:43:40;;;;;;;;;58.00;45.75;;;;;;;;5065386;28;11579;-75
2022/01/14 11:46:12;;;;;;;;;46.00;39.50;;;;;;;;5058515;28;11618;-76
2022/01/14 11:48:44;;;;;;;;;53.25;41.00;;;;;;;;5047971;28;11558;-76
2022/01/14 11:51:12;;;;;;;;;49.75;42.00;;;;;;;;5064924;28;11501;-78
2022/01/14 11:53:45;;;;;;;;;58.75;48.25;;;;;;;;5065514;28;11624;-79
2022/01/14 11:56:43;;;;;;;;;63.75;51.00;;;;;;;;5063834;28;11501;-75
2022/01/14 11:59:39;;;;;;;;;60.00;49.25;;;;;;;;5066407;28;11504;-75
2022/01/14 12:02:40;;;;;;;;;60.50;46.00;;;;;;;;5065435;28;11490;-76
2022/01/14 12:05:17;;;;;;;;;60.00;47.25;;;;;;;;5066178;28;12434;-76
2022/01/14 12:08:11;;;;;;;;;54.25;45.00;;;;;;;;5065699;28;11501;-79
2022/01/14 12:10:40;;;;;;;;;50.75;43.00;;;;;;;;5048644;28;11534;-78
2022/01/14 12:13:26;;;;;;;;;55.25;44.25;;;;;;;;5064356;28;11254;-77
2022/01/14 12:15:58;;;;;;;;;55.25;44.25;;;;;;;;5063452;28;11539;-76
2022/01/14 12:22:01;;;;;;;;;58.25;46.25;;;;;;;;5062893;28;11638;-76
2022/01/14 12:24:51;;;;;;;;;56.50;44.00;;;;;;;;5064990;28;11552;-76
2022/01/14 12:27:41;;;;;;;;;68.25;56.00;;;;;;;;5064971;28;11527;-76
2022/01/14 12:30:22;;;;;;;;;71.50;55.50;;;;;;;;5061343;28;11628;-80
2022/01/14 12:32:53;;;;;;;;;60.00;51.00;;;;;;;;5047874;28;11533;-79
2022/01/14 12:35:26;;;;;;;;;53.75;44.50;;;;;;;;5064709;28;11168;-78
2022/01/14 12:37:56;;;;;;;;;54.50;45.50;;;;;;;;5065963;28;10899;-79
2022/01/14 12:40:25;;;;;;;;;57.50;49.25;;;;;;;;5064619;28;11018;-78
2022/01/14 12:42:55;;;;;;;;;61.25;49.50;;;;;;;;5045515;28;11091;-75
2022/01/14 12:45:36;;;;;;;;;58.50;48.00;;;;;;;;5064250;28;11045;-77
2022/01/14 12:48:28;;;;;;;;;57.00;47.00;;;;;;;;5059572;28;10908;-77
2022/01/14 12:51:04;;;;;;;;;53.00;45.75;;;;;;;;5064530;28;10790;-77
2022/01/14 12:53:33;;;;;;;;;54.00;44.50;;;;;;;;5066455;28;10562;-78
2022/01/14 12:56:02;;;;;;;;;51.75;42.75;;;;;;;;5063778;28;10520;-77
2022/01/14 12:58:31;;;;;;;;;53.00;42.25;;;;;;;;5064658;28;10470;-77
2022/01/14 13:01:19;;;;;;;;;54.25;46.25;;;;;;;;5062910;28;10279;-76
2022/01/14 13:03:47;;;;;;;;;52.50;42.00;;;;;;;;5057792;28;10303;-80
2022/01/14 13:06:14;;;;;;;;;35.75;33.00;;;;;;;;5064563;28;10929;-80
2022/01/14 13:08:43;;;;;;;;;33.25;32.25;;;;;;;;5068093;28;9567;-80
2022/01/14 13:11:11;;;;;;;;;38.50;35.00;;;;;;;;5062431;28;9707;-80
2022/01/14 13:13:39;;;;;;;;;37.50;36.50;;;;;;;;5061452;28;9488;-81
2022/01/14 13:16:06;;;;;;;;;32.75;30.75;;;;;;;;5064867;28;9549;-80
2022/01/14 13:18:45;;;;;;;;;35.00;34.50;;;;;;;;5061383;28;9522;-79
2022/01/14 13:21:12;;;;;;;;;36.50;35.75;;;;;;;;5063747;28;9844;-80
2022/01/14 13:23:39;;;;;;;;;39.00;36.50;;;;;;;;5063821;28;9693;-80
2022/01/14 13:26:11;;;;;;;;;40.75;37.25;;;;;;;;5062754;28;9800;-80
2022/01/14 13:28:38;;;;;;;;;38.75;35.00;;;;;;;;5061529;28;10394;-82
2022/01/14 13:31:10;;;;;;;;;41.50;38.00;;;;;;;;5061158;28;9742;-77
2022/01/14 13:33:37;;;;;;;;;30.75;28.50;;;;;;;;5061421;28;9761;-79
2022/01/14 13:36:05;;;;;;;;;35.25;33.75;;;;;;;;5061952;28;9774;-76
2022/01/14 13:38:33;;;;;;;;;24.50;24.50;;;;;;;;5063729;28;9732;-77
2022/01/14 13:41:00;;;;;;;;;37.25;33.25;;;;;;;;5068701;28;9509;-76
2022/01/14 13:43:31;;;;;;;;;30.75;30.00;;;;;;;;5063658;28;9559;-82
2022/01/14 13:46:06;;;;;;;;;37.75;35.25;;;;;;;;5064966;28;9475;-81
2022/01/14 13:48:40;;;;;;;;;37.33;34.67;;;;;;;;5047041;28;9558;-80
2022/01/14 13:51:09;;;;;;;;;36.75;33.50;;;;;;;;5038106;28;9403;-79
2022/01/14 13:53:38;;;;;;;;;34.75;31.50;;;;;;;;5063308;28;9633;-80
2022/01/14 13:56:09;;;;;;;;;40.75;36.50;;;;;;;;5064115;28;9648;-78
2022/01/14 13:58:39;;;;;;;;;31.00;31.00;;;;;;;;5065480;28;9428;-78
2022/01/14 14:01:11;;;;;;;;;25.33;25.33;;;;;;;;5061840;28;9273;-79
2022/01/14 14:03:47;;;;;;;;;29.33;29.33;;;;;;;;5059614;28;9426;-78
2022/01/14 14:06:18;;;;;;;;;36.33;33.67;;;;;;;;5062222;28;9388;-75
2022/01/14 14:08:52;;;;;;;;;26.00;25.67;;;;;;;;5062510;28;9353;-76
2022/01/14 14:16:59;;;;;;;;;27.33;25.33;;;;;;;;5065161;28;9081;-76
2022/01/14 14:19:28;;;;;;;;;30.00;29.00;;;;;;;;5062149;28;9053;-77
2022/01/14 14:22:10;;;;;;;;;29.25;27.50;;;;;;;;5062933;28;8944;-77
2022/01/14 14:24:38;;;;;;;;;28.00;28.00;;;;;;;;5062482;28;8990;-77
2022/01/14 14:27:14;;;;;;;;;27.25;27.25;;;;;;;;5063281;28;8868;-77
2022/01/14 14:29:51;;;;;;;;;29.00;29.00;;;;;;;;5063183;28;8859;-78
2022/01/14 14:32:25;;;;;;;;;32.50;27.50;;;;;;;;5060585;28;8787;-86
2022/01/14 14:34:53;;;;;;;;;30.25;27.50;;;;;;;;5064421;28;8872;-87
2022/01/14 14:37:20;;;;;;;;;23.25;23.25;;;;;;;;5062458;28;8848;-81
2022/01/14 14:39:48;;;;;;;;;31.50;27.00;;;;;;;;5050476;28;8866;-83
2022/01/14 14:42:15;;;;;;;;;24.75;24.25;;;;;;;;5059974;28;8891;-83
2022/01/14 14:44:42;;;;;;;;;24.75;24.75;;;;;;;;5065860;28;8998;-82
2022/01/14 14:47:12;;;;;;;;;20.25;20.25;;;;;;;;5064350;28;8856;-82
2022/01/14 14:49:40;;;;;;;;;22.25;22.25;;;;;;;;5066637;28;8864;-82
2022/01/14 14:52:07;;;;;;;;;23.75;23.00;;;;;;;;5064954;28;8871;-82
2022/01/14 14:54:35;;;;;;;;;21.00;21.00;;;;;;;;5050222;28;8880;-81
2022/01/14 14:57:02;;;;;;;;;24.75;24.75;;;;;;;;5061299;28;9595;-81
2022/01/14 14:59:30;;;;;;;;;31.50;27.50;;;;;;;;5063364;28;9645;-84
2022/01/14 15:01:58;;;;;;;;;21.50;19.25;;;;;;;;5045966;28;8817;-81
2022/01/14 15:04:26;;;;;;;;;42.00;36.00;;;;;;;;5061315;28;8856;-84
2022/01/14 15:06:54;;;;;;;;;50.00;39.25;;;;;;;;5044244;28;9085;-82
2022/01/14 15:09:22;;;;;;;;;39.50;36.25;;;;;;;;5063153;28;9516;-82
2022/01/14 15:11:49;;;;;;;;;40.00;36.25;;;;;;;;5045220;28;9666;-83
2022/01/14 15:14:17;;;;;;;;;49.50;41.25;;;;;;;;5060899;28;9600;-83